sensor_id;sensor_type;location;lat;lon;timestamp;temperature;humidity
36790;DHT22;22740;52.182;8.780;2023-06-10T00:05:01;17.90;99.90
36790;DHT22;22740;52.182;8.780;2023-06-10T00:11:03;17.80;99.90
36790;DHT22;22740;52.182;8.780;2023-06-10T00:17:05;17.70;99.90
36790;DHT22;22740;52.182;8.780;2023-06-10T00:23:10;17.70;99.90
36790;DHT22;22740;52.182;8.780;2023-06-10T00:29:13;17.50;99.90
36790;DHT22;22740;52.182;8.780;2023-06-10T00:35:15;17.40;99.90
36790;DHT22;22740;52.182;8.780;2023-06-10T00:41:17;17.40;99.90
36790;DHT22;22740;52.182;8.780;2023-06-10T00:47:19;17.40;99.90
36790;DHT22;22740;52.182;8.780;2023-06-10T00:53:22;17.50;99.90
36790;DHT22;22740;52.182;8.780;2023-06-10T00:59:24;17.40;99.90
36790;DHT22;22740;52.182;8.780;2023-06-10T01:05:27;17.20;99.90
36790;DHT22;22740;52.182;8.780;2023-06-10T01:11:41;17.10;99.90
36790;DHT22;22740;52.182;8.780;2023-06-10T01:17:58;17.00;99.90
36790;DHT22;22740;52.182;8.780;2023-06-10T01:24:01;16.90;99.90
36790;DHT22;22740;52.182;8.780;2023-06-10T01:30:12;16.70;99.90
36790;DHT22;22740;52.182;8.780;2023-06-10T01:36:18;16.50;99.90
36790;DHT22;22740;52.182;8.780;2023-06-10T01:42:21;16.50;99.90
36790;DHT22;22740;52.182;8.780;2023-06-10T01:48:23;16.50;99.90
36790;DHT22;22740;52.182;8.780;2023-06-10T01:54:25;16.30;99.90
36790;DHT22;22740;52.182;8.780;2023-06-10T02:00:27;16.00;99.90
36790;DHT22;22740;52.182;8.780;2023-06-10T02:06:29;15.90;99.90
36790;DHT22;22740;52.182;8.780;2023-06-10T02:12:31;16.00;99.90
36790;DHT22;22740;52.182;8.780;2023-06-10T02:18:33;16.30;99.90
36790;DHT22;22740;52.182;8.780;2023-06-10T02:24:36;16.80;99.90
36790;DHT22;22740;52.182;8.780;2023-06-10T02:30:42;17.00;99.90
36790;DHT22;22740;52.182;8.780;2023-06-10T02:36:44;16.70;99.90
36790;DHT22;22740;52.182;8.780;2023-06-10T02:42:46;16.20;99.90
36790;DHT22;22740;52.182;8.780;2023-06-10T02:48:48;16.60;99.90
36790;DHT22;22740;52.182;8.780;2023-06-10T02:54:53;15.90;99.90
36790;DHT22;22740;52.182;8.780;2023-06-10T03:00:58;15.40;99.90
36790;DHT22;22740;52.182;8.780;2023-06-10T03:07:00;16.10;99.90
36790;DHT22;22740;52.182;8.780;2023-06-10T03:13:05;15.50;99.90
36790;DHT22;22740;52.182;8.780;2023-06-10T03:19:07;15.00;99.90
36790;DHT22;22740;52.182;8.780;2023-06-10T03:25:09;14.80;99.90
36790;DHT22;22740;52.182;8.780;2023-06-10T03:31:16;14.70;99.90
36790;DHT22;22740;52.182;8.780;2023-06-10T03:37:18;14.80;99.90
36790;DHT22;22740;52.182;8.780;2023-06-10T03:43:20;14.80;99.90
36790;DHT22;22740;52.182;8.780;2023-06-10T03:49:23;14.70;99.90
36790;DHT22;22740;52.182;8.780;2023-06-10T03:55:28;14.70;99.90
36790;DHT22;22740;52.182;8.780;2023-06-10T04:01:31;14.60;99.90
36790;DHT22;22740;52.182;8.780;2023-06-10T04:07:33;14.70;99.90
36790;DHT22;22740;52.182;8.780;2023-06-10T04:13:36;15.00;99.90
36790;DHT22;22740;52.182;8.780;2023-06-10T04:19:39;15.70;99.90
36790;DHT22;22740;52.182;8.780;2023-06-10T04:25:41;15.60;99.90
36790;DHT22;22740;52.182;8.780;2023-06-10T04:31:44;15.90;99.90
36790;DHT22;22740;52.182;8.780;2023-06-10T04:37:48;16.70;99.90
36790;DHT22;22740;52.182;8.780;2023-06-10T04:43:50;16.50;99.90
36790;DHT22;22740;52.182;8.780;2023-06-10T04:49:53;15.80;99.90
36790;DHT22;22740;52.182;8.780;2023-06-10T04:55:54;16.90;99.90
36790;DHT22;22740;52.182;8.780;2023-06-10T05:01:57;16.50;99.90
36790;DHT22;22740;52.182;8.780;2023-06-10T05:07:59;16.00;99.90
36790;DHT22;22740;52.182;8.780;2023-06-10T05:14:00;15.70;99.90
36790;DHT22;22740;52.182;8.780;2023-06-10T05:20:03;15.50;99.90
36790;DHT22;22740;52.182;8.780;2023-06-10T05:26:05;15.60;99.90
36790;DHT22;22740;52.182;8.780;2023-06-10T05:32:08;15.60;99.90
36790;DHT22;22740;52.182;8.780;2023-06-10T05:38:10;15.80;99.90
36790;DHT22;22740;52.182;8.780;2023-06-10T05:44:12;16.40;99.90
36790;DHT22;22740;52.182;8.780;2023-06-10T05:50:15;16.50;99.90
36790;DHT22;22740;52.182;8.780;2023-06-10T05:56:17;16.30;99.90
36790;DHT22;22740;52.182;8.780;2023-06-10T06:02:19;16.50;99.90
36790;DHT22;22740;52.182;8.780;2023-06-10T06:08:21;16.80;99.90
36790;DHT22;22740;52.182;8.780;2023-06-10T06:14:23;16.60;99.90
36790;DHT22;22740;52.182;8.780;2023-06-10T06:20:25;17.10;99.90
36790;DHT22;22740;52.182;8.780;2023-06-10T06:26:27;17.40;99.90
36790;DHT22;22740;52.182;8.780;2023-06-10T06:32:29;17.10;99.90
36790;DHT22;22740;52.182;8.780;2023-06-10T06:38:31;17.80;99.90
36790;DHT22;22740;52.182;8.780;2023-06-10T06:44:33;18.10;99.90
36790;DHT22;22740;52.182;8.780;2023-06-10T06:50:35;18.40;99.90
36790;DHT22;22740;52.182;8.780;2023-06-10T06:56:37;18.70;99.90
36790;DHT22;22740;52.182;8.780;2023-06-10T07:02:39;18.80;99.90
36790;DHT22;22740;52.182;8.780;2023-06-10T07:08:42;18.70;99.90
36790;DHT22;22740;52.182;8.780;2023-06-10T07:14:44;18.40;99.90
36790;DHT22;22740;52.182;8.780;2023-06-10T07:20:46;18.70;99.90
36790;DHT22;22740;52.182;8.780;2023-06-10T07:26:48;18.60;99.90
36790;DHT22;22740;52.182;8.780;2023-06-10T07:32:51;18.60;99.90
36790;DHT22;22740;52.182;8.780;2023-06-10T07:38:54;18.60;99.90
36790;DHT22;22740;52.182;8.780;2023-06-10T07:44:56;18.90;99.90
36790;DHT22;22740;52.182;8.780;2023-06-10T07:50:58;19.00;99.90
36790;DHT22;22740;52.182;8.780;2023-06-10T07:57:01;19.10;99.90
36790;DHT22;22740;52.182;8.780;2023-06-10T08:03:03;19.20;99.90
36790;DHT22;22740;52.182;8.780;2023-06-10T08:09:05;19.00;99.90
36790;DHT22;22740;52.182;8.780;2023-06-10T08:15:07;19.00;99.90
36790;DHT22;22740;52.182;8.780;2023-06-10T08:21:10;19.00;99.90
36790;DHT22;22740;52.182;8.780;2023-06-10T08:27:12;19.20;99.90
36790;DHT22;22740;52.182;8.780;2023-06-10T08:33:14;19.40;99.90
36790;DHT22;22740;52.182;8.780;2023-06-10T08:39:16;19.60;99.90
36790;DHT22;22740;52.182;8.780;2023-06-10T08:45:19;19.50;99.90
36790;DHT22;22740;52.182;8.780;2023-06-10T08:51:24;19.30;99.90
36790;DHT22;22740;52.182;8.780;2023-06-10T08:57:27;19.50;99.90
36790;DHT22;22740;52.182;8.780;2023-06-10T09:03:30;19.80;99.90
36790;DHT22;22740;52.182;8.780;2023-06-10T09:09:32;20.10;99.90
36790;DHT22;22740;52.182;8.780;2023-06-10T09:15:36;20.30;99.90
36790;DHT22;22740;52.182;8.780;2023-06-10T09:21:38;20.50;99.90
36790;DHT22;22740;52.182;8.780;2023-06-10T09:27:48;20.20;99.90
36790;DHT22;22740;52.182;8.780;2023-06-10T09:34:05;20.50;99.90
36790;DHT22;22740;52.182;8.780;2023-06-10T09:40:09;21.10;99.90
36790;DHT22;22740;52.182;8.780;2023-06-10T09:46:19;21.80;99.90
36790;DHT22;22740;52.182;8.780;2023-06-10T09:52:23;22.20;99.90
36790;DHT22;22740;52.182;8.780;2023-06-10T09:58:39;21.70;99.90
36790;DHT22;22740;52.182;8.780;2023-06-10T10:04:41;22.30;99.90
36790;DHT22;22740;52.182;8.780;2023-06-10T10:10:43;22.80;99.90
36790;DHT22;22740;52.182;8.780;2023-06-10T10:16:46;22.80;99.90
36790;DHT22;22740;52.182;8.780;2023-06-10T10:22:49;22.90;99.90
36790;DHT22;22740;52.182;8.780;2023-06-10T10:35:21;22.80;99.90
36790;DHT22;22740;52.182;8.780;2023-06-10T10:41:26;23.50;99.90
36790;DHT22;22740;52.182;8.780;2023-06-10T10:47:30;23.30;99.90
36790;DHT22;22740;52.182;8.780;2023-06-10T10:53:32;23.10;99.90
36790;DHT22;22740;52.182;8.780;2023-06-10T10:59:54;23.10;99.90
36790;DHT22;22740;52.182;8.780;2023-06-10T11:06:15;23.70;99.90
36790;DHT22;22740;52.182;8.780;2023-06-10T11:12:22;23.90;99.90
36790;DHT22;22740;52.182;8.780;2023-06-10T11:18:27;24.50;99.90
36790;DHT22;22740;52.182;8.780;2023-06-10T11:24:30;24.20;99.90
36790;DHT22;22740;52.182;8.780;2023-06-10T11:30:34;24.20;99.90
36790;DHT22;22740;52.182;8.780;2023-06-10T11:36:38;24.10;99.90
36790;DHT22;22740;52.182;8.780;2023-06-10T11:42:45;24.00;99.90
36790;DHT22;22740;52.182;8.780;2023-06-10T11:48:55;24.60;99.90
36790;DHT22;22740;52.182;8.780;2023-06-10T11:54:57;24.50;99.90
36790;DHT22;22740;52.182;8.780;2023-06-10T12:00:59;24.40;99.90
36790;DHT22;22740;52.182;8.780;2023-06-10T12:07:03;24.90;99.90
36790;DHT22;22740;52.182;8.780;2023-06-10T12:13:05;25.30;99.90
36790;DHT22;22740;52.182;8.780;2023-06-10T12:19:07;25.30;99.90
36790;DHT22;22740;52.182;8.780;2023-06-10T12:25:10;25.50;99.90
36790;DHT22;22740;52.182;8.780;2023-06-10T12:31:13;25.80;99.90
36790;DHT22;22740;52.182;8.780;2023-06-10T12:37:16;25.60;99.90
36790;DHT22;22740;52.182;8.780;2023-06-10T12:43:25;25.50;99.90
36790;DHT22;22740;52.182;8.780;2023-06-10T12:49:27;25.30;99.90
36790;DHT22;22740;52.182;8.780;2023-06-10T12:55:29;25.60;99.90
36790;DHT22;22740;52.182;8.780;2023-06-10T13:01:32;25.30;99.90
36790;DHT22;22740;52.182;8.780;2023-06-10T13:07:34;25.50;99.90
36790;DHT22;22740;52.182;8.780;2023-06-10T13:13:37;25.60;99.90
36790;DHT22;22740;52.182;8.780;2023-06-10T13:19:39;25.70;99.90
36790;DHT22;22740;52.182;8.780;2023-06-10T13:25:41;25.60;99.90
36790;DHT22;22740;52.182;8.780;2023-06-10T13:31:46;25.80;99.90
36790;DHT22;22740;52.182;8.780;2023-06-10T13:37:48;25.80;99.90
36790;DHT22;22740;52.182;8.780;2023-06-10T13:43:50;25.70;99.90
36790;DHT22;22740;52.182;8.780;2023-06-10T13:49:52;25.70;99.90
36790;DHT22;22740;52.182;8.780;2023-06-10T13:55:54;25.70;99.90
36790;DHT22;22740;52.182;8.780;2023-06-10T14:01:55;25.70;99.90
36790;DHT22;22740;52.182;8.780;2023-06-10T14:07:58;25.80;99.90
36790;DHT22;22740;52.182;8.780;2023-06-10T14:14:00;25.80;99.90
36790;DHT22;22740;52.182;8.780;2023-06-10T14:20:02;25.90;99.90
36790;DHT22;22740;52.182;8.780;2023-06-10T14:26:05;25.80;99.90
36790;DHT22;22740;52.182;8.780;2023-06-10T14:32:09;25.80;99.90
36790;DHT22;22740;52.182;8.780;2023-06-10T14:38:11;25.80;99.90
36790;DHT22;22740;52.182;8.780;2023-06-10T14:44:13;25.90;99.90
36790;DHT22;22740;52.182;8.780;2023-06-10T14:50:15;26.00;99.90
36790;DHT22;22740;52.182;8.780;2023-06-10T14:56:17;26.10;99.90
36790;DHT22;22740;52.182;8.780;2023-06-10T15:02:20;26.10;99.90
36790;DHT22;22740;52.182;8.780;2023-06-10T15:08:23;26.20;99.90
36790;DHT22;22740;52.182;8.780;2023-06-10T15:14:29;26.20;99.90
36790;DHT22;22740;52.182;8.780;2023-06-10T15:20:31;26.20;99.90
36790;DHT22;22740;52.182;8.780;2023-06-10T15:26:33;26.10;99.90
36790;DHT22;22740;52.182;8.780;2023-06-10T15:32:35;26.10;99.90
36790;DHT22;22740;52.182;8.780;2023-06-10T15:38:37;26.10;99.90
36790;DHT22;22740;52.182;8.780;2023-06-10T15:44:39;26.10;99.90
36790;DHT22;22740;52.182;8.780;2023-06-10T15:50:41;26.30;99.90
36790;DHT22;22740;52.182;8.780;2023-06-10T15:56:44;26.30;99.90
36790;DHT22;22740;52.182;8.780;2023-06-10T16:02:46;26.40;99.90
36790;DHT22;22740;52.182;8.780;2023-06-10T16:08:48;26.50;99.90
36790;DHT22;22740;52.182;8.780;2023-06-10T16:14:51;26.40;99.90
36790;DHT22;22740;52.182;8.780;2023-06-10T16:20:53;26.50;99.90
36790;DHT22;22740;52.182;8.780;2023-06-10T16:26:55;26.20;99.90
36790;DHT22;22740;52.182;8.780;2023-06-10T16:32:56;26.30;99.90
36790;DHT22;22740;52.182;8.780;2023-06-10T16:38:59;26.30;99.90
36790;DHT22;22740;52.182;8.780;2023-06-10T16:45:00;26.30;99.90
36790;DHT22;22740;52.182;8.780;2023-06-10T16:51:03;26.30;99.90
36790;DHT22;22740;52.182;8.780;2023-06-10T16:57:05;26.30;99.90
36790;DHT22;22740;52.182;8.780;2023-06-10T17:03:07;26.20;99.90
36790;DHT22;22740;52.182;8.780;2023-06-10T17:09:10;26.20;99.90
36790;DHT22;22740;52.182;8.780;2023-06-10T17:15:11;26.20;99.90
36790;DHT22;22740;52.182;8.780;2023-06-10T17:21:13;26.20;99.90
36790;DHT22;22740;52.182;8.780;2023-06-10T17:27:15;26.10;99.90
36790;DHT22;22740;52.182;8.780;2023-06-10T17:33:18;26.10;99.90
36790;DHT22;22740;52.182;8.780;2023-06-10T17:39:20;26.20;99.90
36790;DHT22;22740;52.182;8.780;2023-06-10T17:45:22;26.10;99.90
36790;DHT22;22740;52.182;8.780;2023-06-10T17:51:24;26.20;99.90
36790;DHT22;22740;52.182;8.780;2023-06-10T17:57:26;26.30;99.90
36790;DHT22;22740;52.182;8.780;2023-06-10T18:03:29;26.30;99.90
36790;DHT22;22740;52.182;8.780;2023-06-10T18:09:31;26.10;99.90
36790;DHT22;22740;52.182;8.780;2023-06-10T18:15:34;25.90;99.90
36790;DHT22;22740;52.182;8.780;2023-06-10T18:21:38;25.70;99.90
36790;DHT22;22740;52.182;8.780;2023-06-10T18:27:41;25.50;99.90
36790;DHT22;22740;52.182;8.780;2023-06-10T18:33:43;25.30;99.90
36790;DHT22;22740;52.182;8.780;2023-06-10T18:39:45;25.10;99.90
36790;DHT22;22740;52.182;8.780;2023-06-10T18:45:47;25.10;99.90
36790;DHT22;22740;52.182;8.780;2023-06-10T18:51:49;24.80;99.90
36790;DHT22;22740;52.182;8.780;2023-06-10T18:57:51;24.60;99.90
36790;DHT22;22740;52.182;8.780;2023-06-10T19:03:53;24.30;99.90
36790;DHT22;22740;52.182;8.780;2023-06-10T19:09:55;24.20;99.90
36790;DHT22;22740;52.182;8.780;2023-06-10T19:15:57;24.20;99.90
36790;DHT22;22740;52.182;8.780;2023-06-10T19:21:59;23.90;99.90
36790;DHT22;22740;52.182;8.780;2023-06-10T19:28:02;23.70;99.90
36790;DHT22;22740;52.182;8.780;2023-06-10T19:34:04;23.50;99.90
36790;DHT22;22740;52.182;8.780;2023-06-10T19:40:06;23.40;99.90
36790;DHT22;22740;52.182;8.780;2023-06-10T19:46:08;23.50;99.90
36790;DHT22;22740;52.182;8.780;2023-06-10T19:52:11;23.40;99.90
36790;DHT22;22740;52.182;8.780;2023-06-10T19:58:13;23.10;99.90
36790;DHT22;22740;52.182;8.780;2023-06-10T20:04:15;22.70;99.90
36790;DHT22;22740;52.182;8.780;2023-06-10T20:10:17;22.40;99.90
36790;DHT22;22740;52.182;8.780;2023-06-10T20:16:19;22.40;99.90
36790;DHT22;22740;52.182;8.780;2023-06-10T20:22:22;22.50;99.90
36790;DHT22;22740;52.182;8.780;2023-06-10T20:28:25;22.80;99.90
36790;DHT22;22740;52.182;8.780;2023-06-10T20:34:27;22.80;99.90
36790;DHT22;22740;52.182;8.780;2023-06-10T20:40:30;22.60;99.90
36790;DHT22;22740;52.182;8.780;2023-06-10T20:46:32;22.30;99.90
36790;DHT22;22740;52.182;8.780;2023-06-10T20:52:34;22.10;99.90
36790;DHT22;22740;52.182;8.780;2023-06-10T20:58:36;22.20;99.90
36790;DHT22;22740;52.182;8.780;2023-06-10T21:04:39;22.20;99.90
36790;DHT22;22740;52.182;8.780;2023-06-10T21:10:41;22.00;99.90
36790;DHT22;22740;52.182;8.780;2023-06-10T21:16:44;21.60;99.90
36790;DHT22;22740;52.182;8.780;2023-06-10T21:22:46;21.20;99.90
36790;DHT22;22740;52.182;8.780;2023-06-10T21:28:48;21.00;99.90
36790;DHT22;22740;52.182;8.780;2023-06-10T21:34:50;20.80;99.90
36790;DHT22;22740;52.182;8.780;2023-06-10T21:40:54;20.50;99.90
36790;DHT22;22740;52.182;8.780;2023-06-10T21:46:56;20.30;99.90
36790;DHT22;22740;52.182;8.780;2023-06-10T21:52:58;20.30;99.90
36790;DHT22;22740;52.182;8.780;2023-06-10T21:59:02;20.40;99.90
36790;DHT22;22740;52.182;8.780;2023-06-10T22:05:04;20.40;99.90
36790;DHT22;22740;52.182;8.780;2023-06-10T22:11:07;20.60;99.90
36790;DHT22;22740;52.182;8.780;2023-06-10T22:17:10;20.70;99.90
36790;DHT22;22740;52.182;8.780;2023-06-10T22:23:19;21.10;99.90
36790;DHT22;22740;52.182;8.780;2023-06-10T22:29:21;21.30;99.90
36790;DHT22;22740;52.182;8.780;2023-06-10T22:35:23;21.00;99.90
36790;DHT22;22740;52.182;8.780;2023-06-10T22:41:25;20.60;99.90
36790;DHT22;22740;52.182;8.780;2023-06-10T22:47:27;20.60;99.90
36790;DHT22;22740;52.182;8.780;2023-06-10T22:53:29;20.20;99.90
36790;DHT22;22740;52.182;8.780;2023-06-10T22:59:32;19.40;99.90
36790;DHT22;22740;52.182;8.780;2023-06-10T23:05:34;19.40;99.90
36790;DHT22;22740;52.182;8.780;2023-06-10T23:11:37;19.40;99.90
36790;DHT22;22740;52.182;8.780;2023-06-10T23:17:39;19.20;99.90
36790;DHT22;22740;52.182;8.780;2023-06-10T23:23:41;19.10;99.90
36790;DHT22;22740;52.182;8.780;2023-06-10T23:29:43;19.20;99.90
36790;DHT22;22740;52.182;8.780;2023-06-10T23:35:58;19.40;99.90
36790;DHT22;22740;52.182;8.780;2023-06-10T23:42:00;19.30;99.90
36790;DHT22;22740;52.182;8.780;2023-06-10T23:48:02;19.60;99.90
36790;DHT22;22740;52.182;8.780;2023-06-10T23:54:05;19.80;99.90
